sensor_id;sensor_type;location;lat;lon;timestamp;temperature;humidity
18317;DHT22;9284;52.298;21.164;2023-05-10T00:01:33;4.80;1.00
18317;DHT22;9284;52.298;21.164;2023-05-10T00:04:03;4.80;1.00
18317;DHT22;9284;52.298;21.164;2023-05-10T00:06:32;4.80;1.00
18317;DHT22;9284;52.298;21.164;2023-05-10T00:09:13;4.80;1.00
18317;DHT22;9284;52.298;21.164;2023-05-10T00:11:41;4.70;1.00
18317;DHT22;9284;52.298;21.164;2023-05-10T00:14:10;4.80;1.00
18317;DHT22;9284;52.298;21.164;2023-05-10T00:16:41;4.80;1.00
18317;DHT22;9284;52.298;21.164;2023-05-10T00:19:09;4.70;1.00
18317;DHT22;9284;52.298;21.164;2023-05-10T00:22:02;4.70;1.00
18317;DHT22;9284;52.298;21.164;2023-05-10T00:24:35;4.80;1.00
18317;DHT22;9284;52.298;21.164;2023-05-10T00:27:10;4.70;1.00
18317;DHT22;9284;52.298;21.164;2023-05-10T00:29:41;4.70;1.00
18317;DHT22;9284;52.298;21.164;2023-05-10T00:32:10;4.80;1.00
18317;DHT22;9284;52.298;21.164;2023-05-10T00:34:42;4.70;1.00
18317;DHT22;9284;52.298;21.164;2023-05-10T00:37:14;4.70;1.00
18317;DHT22;9284;52.298;21.164;2023-05-10T00:39:52;4.80;99.90
18317;DHT22;9284;52.298;21.164;2023-05-10T00:42:22;4.70;99.90
18317;DHT22;9284;52.298;21.164;2023-05-10T00:44:58;4.80;99.90
18317;DHT22;9284;52.298;21.164;2023-05-10T00:47:30;4.90;99.90
18317;DHT22;9284;52.298;21.164;2023-05-10T00:50:01;5.00;99.90
18317;DHT22;9284;52.298;21.164;2023-05-10T00:52:42;4.90;99.90
18317;DHT22;9284;52.298;21.164;2023-05-10T00:55:14;4.90;99.90
18317;DHT22;9284;52.298;21.164;2023-05-10T00:57:47;4.80;63.90
18317;DHT22;9284;52.298;21.164;2023-05-10T01:00:18;5.00;6.20
18317;DHT22;9284;52.298;21.164;2023-05-10T01:02:53;5.10;1.00
18317;DHT22;9284;52.298;21.164;2023-05-10T01:05:23;5.30;1.00
18317;DHT22;9284;52.298;21.164;2023-05-10T01:07:52;5.20;1.00
18317;DHT22;9284;52.298;21.164;2023-05-10T01:10:27;5.20;1.00
18317;DHT22;9284;52.298;21.164;2023-05-10T01:13:11;5.20;1.00
18317;DHT22;9284;52.298;21.164;2023-05-10T01:15:44;5.10;1.00
18317;DHT22;9284;52.298;21.164;2023-05-10T01:18:17;5.10;1.00
18317;DHT22;9284;52.298;21.164;2023-05-10T01:21:01;5.10;1.00
18317;DHT22;9284;52.298;21.164;2023-05-10T01:24:11;5.10;1.00
18317;DHT22;9284;52.298;21.164;2023-05-10T01:33:11;4.90;1.00
18317;DHT22;9284;52.298;21.164;2023-05-10T01:36:01;4.90;1.00
18317;DHT22;9284;52.298;21.164;2023-05-10T01:38:40;4.70;1.00
18317;DHT22;9284;52.298;21.164;2023-05-10T01:41:20;4.90;1.00
18317;DHT22;9284;52.298;21.164;2023-05-10T01:44:10;4.80;1.00
18317;DHT22;9284;52.298;21.164;2023-05-10T01:46:48;4.70;1.00
18317;DHT22;9284;52.298;21.164;2023-05-10T01:49:26;4.60;5.20
18317;DHT22;9284;52.298;21.164;2023-05-10T01:51:59;4.60;1.00
18317;DHT22;9284;52.298;21.164;2023-05-10T01:54:30;4.60;1.00
18317;DHT22;9284;52.298;21.164;2023-05-10T01:57:06;4.60;1.00
18317;DHT22;9284;52.298;21.164;2023-05-10T01:59:43;4.60;1.00
18317;DHT22;9284;52.298;21.164;2023-05-10T02:02:17;4.60;1.00
18317;DHT22;9284;52.298;21.164;2023-05-10T02:04:56;4.50;1.00
18317;DHT22;9284;52.298;21.164;2023-05-10T02:07:41;4.60;1.00
18317;DHT22;9284;52.298;21.164;2023-05-10T02:10:19;4.60;1.00
18317;DHT22;9284;52.298;21.164;2023-05-10T02:12:49;4.70;1.00
18317;DHT22;9284;52.298;21.164;2023-05-10T02:15:23;4.70;1.00
18317;DHT22;9284;52.298;21.164;2023-05-10T02:17:56;4.70;1.00
18317;DHT22;9284;52.298;21.164;2023-05-10T02:20:39;4.70;1.00
18317;DHT22;9284;52.298;21.164;2023-05-10T02:23:16;4.70;1.00
18317;DHT22;9284;52.298;21.164;2023-05-10T02:25:47;4.60;1.00
18317;DHT22;9284;52.298;21.164;2023-05-10T02:28:18;4.70;1.00
18317;DHT22;9284;52.298;21.164;2023-05-10T02:30:52;4.60;1.00
18317;DHT22;9284;52.298;21.164;2023-05-10T02:33:36;4.70;1.00
18317;DHT22;9284;52.298;21.164;2023-05-10T02:36:10;4.80;1.00
18317;DHT22;9284;52.298;21.164;2023-05-10T02:38:42;4.80;1.00
18317;DHT22;9284;52.298;21.164;2023-05-10T02:41:16;4.90;1.00
18317;DHT22;9284;52.298;21.164;2023-05-10T02:43:50;4.60;1.00
18317;DHT22;9284;52.298;21.164;2023-05-10T02:46:25;4.60;1.00
18317;DHT22;9284;52.298;21.164;2023-05-10T02:48:58;4.50;1.00
18317;DHT22;9284;52.298;21.164;2023-05-10T02:51:37;4.50;1.00
18317;DHT22;9284;52.298;21.164;2023-05-10T02:54:12;4.60;1.00
18317;DHT22;9284;52.298;21.164;2023-05-10T02:57:00;4.70;1.00
18317;DHT22;9284;52.298;21.164;2023-05-10T02:59:34;4.70;1.00
18317;DHT22;9284;52.298;21.164;2023-05-10T03:02:08;4.60;1.00
18317;DHT22;9284;52.298;21.164;2023-05-10T03:04:41;4.60;1.00
18317;DHT22;9284;52.298;21.164;2023-05-10T03:07:13;4.60;1.00
18317;DHT22;9284;52.298;21.164;2023-05-10T03:09:43;4.80;1.00
18317;DHT22;9284;52.298;21.164;2023-05-10T03:12:18;4.80;1.00
18317;DHT22;9284;52.298;21.164;2023-05-10T03:15:00;4.80;1.00
18317;DHT22;9284;52.298;21.164;2023-05-10T03:17:34;4.80;1.00
18317;DHT22;9284;52.298;21.164;2023-05-10T03:20:09;5.10;1.00
18317;DHT22;9284;52.298;21.164;2023-05-10T03:22:55;4.80;1.00
18317;DHT22;9284;52.298;21.164;2023-05-10T03:25:29;4.90;1.00
18317;DHT22;9284;52.298;21.164;2023-05-10T03:28:01;4.90;1.00
18317;DHT22;9284;52.298;21.164;2023-05-10T03:30:34;5.00;1.00
18317;DHT22;9284;52.298;21.164;2023-05-10T03:33:07;5.00;1.00
18317;DHT22;9284;52.298;21.164;2023-05-10T03:35:40;5.00;1.00
18317;DHT22;9284;52.298;21.164;2023-05-10T03:38:16;5.20;1.00
18317;DHT22;9284;52.298;21.164;2023-05-10T03:40:46;5.30;1.00
18317;DHT22;9284;52.298;21.164;2023-05-10T03:43:19;5.30;1.00
18317;DHT22;9284;52.298;21.164;2023-05-10T03:45:58;5.30;1.00
18317;DHT22;9284;52.298;21.164;2023-05-10T03:48:26;5.50;1.00
18317;DHT22;9284;52.298;21.164;2023-05-10T03:51:07;5.60;1.00
18317;DHT22;9284;52.298;21.164;2023-05-10T03:53:40;5.60;1.00
18317;DHT22;9284;52.298;21.164;2023-05-10T03:56:11;5.60;1.00
18317;DHT22;9284;52.298;21.164;2023-05-10T03:58:52;5.70;1.00
18317;DHT22;9284;52.298;21.164;2023-05-10T04:01:20;5.90;1.00
18317;DHT22;9284;52.298;21.164;2023-05-10T04:03:49;5.90;1.00
18317;DHT22;9284;52.298;21.164;2023-05-10T04:06:21;6.00;99.90
18317;DHT22;9284;52.298;21.164;2023-05-10T04:08:54;6.10;99.90
18317;DHT22;9284;52.298;21.164;2023-05-10T04:11:27;6.20;99.90
18317;DHT22;9284;52.298;21.164;2023-05-10T04:13:57;6.50;99.90
18317;DHT22;9284;52.298;21.164;2023-05-10T04:16:29;6.50;99.90
18317;DHT22;9284;52.298;21.164;2023-05-10T04:19:00;6.70;99.90
18317;DHT22;9284;52.298;21.164;2023-05-10T04:21:30;7.20;99.90
18317;DHT22;9284;52.298;21.164;2023-05-10T04:24:05;7.60;99.90
18317;DHT22;9284;52.298;21.164;2023-05-10T04:26:34;7.90;99.90
18317;DHT22;9284;52.298;21.164;2023-05-10T04:29:06;8.10;99.90
18317;DHT22;9284;52.298;21.164;2023-05-10T04:31:38;8.30;99.90
18317;DHT22;9284;52.298;21.164;2023-05-10T04:34:06;8.40;99.90
18317;DHT22;9284;52.298;21.164;2023-05-10T04:36:35;8.60;99.90
18317;DHT22;9284;52.298;21.164;2023-05-10T04:39:05;8.60;99.90
18317;DHT22;9284;52.298;21.164;2023-05-10T04:41:39;8.50;99.90
18317;DHT22;9284;52.298;21.164;2023-05-10T04:44:18;8.40;99.90
18317;DHT22;9284;52.298;21.164;2023-05-10T04:46:50;8.40;99.90
18317;DHT22;9284;52.298;21.164;2023-05-10T04:49:25;8.40;99.90
18317;DHT22;9284;52.298;21.164;2023-05-10T04:52:04;8.40;99.90
18317;DHT22;9284;52.298;21.164;2023-05-10T04:54:37;8.40;99.90
18317;DHT22;9284;52.298;21.164;2023-05-10T04:57:09;8.50;99.90
18317;DHT22;9284;52.298;21.164;2023-05-10T04:59:39;8.50;99.90
18317;DHT22;9284;52.298;21.164;2023-05-10T05:02:12;8.60;99.90
18317;DHT22;9284;52.298;21.164;2023-05-10T05:04:43;8.70;99.90
18317;DHT22;9284;52.298;21.164;2023-05-10T05:07:16;8.70;99.90
18317;DHT22;9284;52.298;21.164;2023-05-10T05:09:52;8.80;99.90
18317;DHT22;9284;52.298;21.164;2023-05-10T05:12:27;9.00;99.90
18317;DHT22;9284;52.298;21.164;2023-05-10T05:14:58;9.00;99.90
18317;DHT22;9284;52.298;21.164;2023-05-10T05:17:31;9.10;99.90
18317;DHT22;9284;52.298;21.164;2023-05-10T05:20:05;9.20;99.90
18317;DHT22;9284;52.298;21.164;2023-05-10T05:22:44;9.30;99.90
18317;DHT22;9284;52.298;21.164;2023-05-10T05:25:15;9.50;99.90
18317;DHT22;9284;52.298;21.164;2023-05-10T05:27:45;9.60;99.90
18317;DHT22;9284;52.298;21.164;2023-05-10T05:30:17;9.80;99.90
18317;DHT22;9284;52.298;21.164;2023-05-10T05:32:46;9.90;99.90
18317;DHT22;9284;52.298;21.164;2023-05-10T05:35:17;10.00;99.90
18317;DHT22;9284;52.298;21.164;2023-05-10T05:37:56;10.20;99.90
18317;DHT22;9284;52.298;21.164;2023-05-10T05:40:27;10.40;99.90
18317;DHT22;9284;52.298;21.164;2023-05-10T05:42:57;10.50;99.90
18317;DHT22;9284;52.298;21.164;2023-05-10T05:45:27;10.70;99.90
18317;DHT22;9284;52.298;21.164;2023-05-10T05:47:57;10.90;99.90
18317;DHT22;9284;52.298;21.164;2023-05-10T05:50:34;11.20;99.90
18317;DHT22;9284;52.298;21.164;2023-05-10T05:53:06;11.50;99.90
18317;DHT22;9284;52.298;21.164;2023-05-10T05:55:36;11.60;99.90
18317;DHT22;9284;52.298;21.164;2023-05-10T05:58:11;12.00;99.90
18317;DHT22;9284;52.298;21.164;2023-05-10T06:00:47;12.20;99.90
18317;DHT22;9284;52.298;21.164;2023-05-10T06:03:21;12.40;99.90
18317;DHT22;9284;52.298;21.164;2023-05-10T06:05:58;12.40;99.90
18317;DHT22;9284;52.298;21.164;2023-05-10T06:08:27;12.60;99.90
18317;DHT22;9284;52.298;21.164;2023-05-10T06:11:03;12.80;99.90
18317;DHT22;9284;52.298;21.164;2023-05-10T06:13:35;13.10;99.90
18317;DHT22;9284;52.298;21.164;2023-05-10T06:16:04;13.30;99.90
18317;DHT22;9284;52.298;21.164;2023-05-10T06:18:41;13.80;99.90
18317;DHT22;9284;52.298;21.164;2023-05-10T06:21:16;14.30;99.90
18317;DHT22;9284;52.298;21.164;2023-05-10T06:23:49;15.30;99.90
18317;DHT22;9284;52.298;21.164;2023-05-10T06:26:20;16.40;99.90
18317;DHT22;9284;52.298;21.164;2023-05-10T06:28:49;17.00;99.90
18317;DHT22;9284;52.298;21.164;2023-05-10T06:31:18;17.20;99.90
18317;DHT22;9284;52.298;21.164;2023-05-10T06:33:48;17.80;99.90
18317;DHT22;9284;52.298;21.164;2023-05-10T06:36:22;18.60;99.90
18317;DHT22;9284;52.298;21.164;2023-05-10T06:38:52;19.20;99.90
18317;DHT22;9284;52.298;21.164;2023-05-10T06:41:27;19.50;99.90
18317;DHT22;9284;52.298;21.164;2023-05-10T06:43:59;19.10;99.90
18317;DHT22;9284;52.298;21.164;2023-05-10T06:46:30;19.00;99.90
18317;DHT22;9284;52.298;21.164;2023-05-10T06:49:00;19.50;99.90
18317;DHT22;9284;52.298;21.164;2023-05-10T06:51:30;19.30;99.90
18317;DHT22;9284;52.298;21.164;2023-05-10T06:54:01;20.10;99.90
18317;DHT22;9284;52.298;21.164;2023-05-10T06:56:34;20.60;99.90
18317;DHT22;9284;52.298;21.164;2023-05-10T06:59:04;20.50;99.90
18317;DHT22;9284;52.298;21.164;2023-05-10T07:01:32;20.70;99.90
18317;DHT22;9284;52.298;21.164;2023-05-10T07:04:05;19.80;99.90
18317;DHT22;9284;52.298;21.164;2023-05-10T07:06:47;19.70;99.90
18317;DHT22;9284;52.298;21.164;2023-05-10T07:09:21;19.60;99.90
18317;DHT22;9284;52.298;21.164;2023-05-10T07:12:00;20.60;99.90
18317;DHT22;9284;52.298;21.164;2023-05-10T07:14:30;20.70;99.90
18317;DHT22;9284;52.298;21.164;2023-05-10T07:17:00;21.10;99.90
18317;DHT22;9284;52.298;21.164;2023-05-10T07:19:31;21.40;99.90
18317;DHT22;9284;52.298;21.164;2023-05-10T07:22:05;20.60;99.90
18317;DHT22;9284;52.298;21.164;2023-05-10T07:24:39;21.40;99.90
18317;DHT22;9284;52.298;21.164;2023-05-10T07:27:14;21.50;99.90
18317;DHT22;9284;52.298;21.164;2023-05-10T07:29:47;21.40;99.90
18317;DHT22;9284;52.298;21.164;2023-05-10T07:32:31;20.40;99.90
18317;DHT22;9284;52.298;21.164;2023-05-10T07:35:05;20.40;99.90
18317;DHT22;9284;52.298;21.164;2023-05-10T07:37:36;20.90;99.90
18317;DHT22;9284;52.298;21.164;2023-05-10T07:40:08;20.20;98.80
18317;DHT22;9284;52.298;21.164;2023-05-10T07:42:38;20.90;99.90
18317;DHT22;9284;52.298;21.164;2023-05-10T07:45:11;21.30;99.90
18317;DHT22;9284;52.298;21.164;2023-05-10T07:47:39;21.60;99.50
18317;DHT22;9284;52.298;21.164;2023-05-10T07:50:13;21.10;97.00
18317;DHT22;9284;52.298;21.164;2023-05-10T07:52:42;21.20;97.80
18317;DHT22;9284;52.298;21.164;2023-05-10T07:55:11;20.20;92.40
18317;DHT22;9284;52.298;21.164;2023-05-10T07:57:43;19.90;99.90
18317;DHT22;9284;52.298;21.164;2023-05-10T08:00:13;20.50;94.20
18317;DHT22;9284;52.298;21.164;2023-05-10T08:02:53;20.40;95.60
18317;DHT22;9284;52.298;21.164;2023-05-10T08:05:22;20.30;92.10
18317;DHT22;9284;52.298;21.164;2023-05-10T08:07:50;20.00;90.50
18317;DHT22;9284;52.298;21.164;2023-05-10T08:10:19;19.70;90.70
18317;DHT22;9284;52.298;21.164;2023-05-10T08:12:50;19.90;91.50
18317;DHT22;9284;52.298;21.164;2023-05-10T08:15:19;20.60;94.60
18317;DHT22;9284;52.298;21.164;2023-05-10T08:17:48;21.10;93.70
18317;DHT22;9284;52.298;21.164;2023-05-10T08:20:18;20.90;94.30
18317;DHT22;9284;52.298;21.164;2023-05-10T08:22:49;20.90;92.80
18317;DHT22;9284;52.298;21.164;2023-05-10T08:25:20;20.60;93.20
18317;DHT22;9284;52.298;21.164;2023-05-10T08:27:52;21.40;95.60
18317;DHT22;9284;52.298;21.164;2023-05-10T08:30:21;20.20;90.70
18317;DHT22;9284;52.298;21.164;2023-05-10T08:32:49;19.50;85.20
18317;DHT22;9284;52.298;21.164;2023-05-10T08:35:25;19.90;90.10
18317;DHT22;9284;52.298;21.164;2023-05-10T08:37:56;20.30;89.60
18317;DHT22;9284;52.298;21.164;2023-05-10T08:40:24;20.60;90.50
18317;DHT22;9284;52.298;21.164;2023-05-10T08:43:05;20.70;92.80
18317;DHT22;9284;52.298;21.164;2023-05-10T08:45:37;21.30;95.30
18317;DHT22;9284;52.298;21.164;2023-05-10T08:48:08;21.90;92.80
18317;DHT22;9284;52.298;21.164;2023-05-10T08:50:40;21.20;91.20
18317;DHT22;9284;52.298;21.164;2023-05-10T08:53:11;20.60;85.60
18317;DHT22;9284;52.298;21.164;2023-05-10T08:55:43;20.70;85.70
18317;DHT22;9284;52.298;21.164;2023-05-10T08:58:13;20.40;86.10
18317;DHT22;9284;52.298;21.164;2023-05-10T09:00:46;19.90;83.10
18317;DHT22;9284;52.298;21.164;2023-05-10T09:03:18;19.60;84.80
18317;DHT22;9284;52.298;21.164;2023-05-10T09:05:52;20.00;88.40
18317;DHT22;9284;52.298;21.164;2023-05-10T09:08:27;20.40;89.10
18317;DHT22;9284;52.298;21.164;2023-05-10T09:11:00;21.10;91.40
18317;DHT22;9284;52.298;21.164;2023-05-10T09:13:35;20.70;90.70
18317;DHT22;9284;52.298;21.164;2023-05-10T09:16:14;20.50;88.20
18317;DHT22;9284;52.298;21.164;2023-05-10T09:18:48;20.60;88.70
18317;DHT22;9284;52.298;21.164;2023-05-10T09:21:20;20.20;83.00
18317;DHT22;9284;52.298;21.164;2023-05-10T09:23:51;20.10;84.20
18317;DHT22;9284;52.298;21.164;2023-05-10T09:26:23;19.70;81.50
18317;DHT22;9284;52.298;21.164;2023-05-10T09:28:55;19.80;83.30
18317;DHT22;9284;52.298;21.164;2023-05-10T09:31:44;19.70;84.70
18317;DHT22;9284;52.298;21.164;2023-05-10T09:34:21;19.30;77.20
18317;DHT22;9284;52.298;21.164;2023-05-10T09:36:57;18.70;74.80
18317;DHT22;9284;52.298;21.164;2023-05-10T09:39:31;19.30;97.00
18317;DHT22;9284;52.298;21.164;2023-05-10T09:42:05;19.70;83.60
18317;DHT22;9284;52.298;21.164;2023-05-10T09:44:38;19.80;86.20
18317;DHT22;9284;52.298;21.164;2023-05-10T09:47:10;19.50;78.90
18317;DHT22;9284;52.298;21.164;2023-05-10T09:49:49;19.40;81.40
18317;DHT22;9284;52.298;21.164;2023-05-10T09:52:25;19.30;80.40
18317;DHT22;9284;52.298;21.164;2023-05-10T09:54:54;19.30;79.20
18317;DHT22;9284;52.298;21.164;2023-05-10T09:57:26;19.00;93.90
18317;DHT22;9284;52.298;21.164;2023-05-10T10:00:00;19.10;78.80
18317;DHT22;9284;52.298;21.164;2023-05-10T10:02:39;19.00;80.10
18317;DHT22;9284;52.298;21.164;2023-05-10T10:05:11;19.10;78.90
18317;DHT22;9284;52.298;21.164;2023-05-10T10:07:40;18.90;82.70
18317;DHT22;9284;52.298;21.164;2023-05-10T10:10:09;18.90;79.80
18317;DHT22;9284;52.298;21.164;2023-05-10T10:12:40;19.30;89.80
18317;DHT22;9284;52.298;21.164;2023-05-10T10:15:13;19.00;84.10
18317;DHT22;9284;52.298;21.164;2023-05-10T10:17:43;18.80;81.80
18317;DHT22;9284;52.298;21.164;2023-05-10T10:20:12;18.70;87.00
18317;DHT22;9284;52.298;21.164;2023-05-10T10:22:45;18.60;82.20
18317;DHT22;9284;52.298;21.164;2023-05-10T10:25:17;18.50;83.80
18317;DHT22;9284;52.298;21.164;2023-05-10T10:27:59;18.30;82.00
18317;DHT22;9284;52.298;21.164;2023-05-10T10:30:41;19.10;92.70
18317;DHT22;9284;52.298;21.164;2023-05-10T10:33:39;19.50;87.10
18317;DHT22;9284;52.298;21.164;2023-05-10T10:36:16;19.80;89.40
18317;DHT22;9284;52.298;21.164;2023-05-10T10:38:57;19.30;80.50
18317;DHT22;9284;52.298;21.164;2023-05-10T10:41:32;19.80;88.80
18317;DHT22;9284;52.298;21.164;2023-05-10T10:44:23;20.20;89.70
18317;DHT22;9284;52.298;21.164;2023-05-10T10:47:04;20.20;90.70
18317;DHT22;9284;52.298;21.164;2023-05-10T10:49:42;19.90;90.10
18317;DHT22;9284;52.298;21.164;2023-05-10T10:52:24;19.40;86.70
18317;DHT22;9284;52.298;21.164;2023-05-10T10:55:05;19.50;84.00
18317;DHT22;9284;52.298;21.164;2023-05-10T10:57:49;19.60;88.30
18317;DHT22;9284;52.298;21.164;2023-05-10T11:00:30;19.50;82.90
18317;DHT22;9284;52.298;21.164;2023-05-10T11:03:05;19.60;86.20
18317;DHT22;9284;52.298;21.164;2023-05-10T11:05:38;19.60;80.80
18317;DHT22;9284;52.298;21.164;2023-05-10T11:08:13;19.60;81.60
18317;DHT22;9284;52.298;21.164;2023-05-10T11:11:01;19.80;86.70
18317;DHT22;9284;52.298;21.164;2023-05-10T11:13:42;20.10;84.90
18317;DHT22;9284;52.298;21.164;2023-05-10T11:16:41;19.90;79.40
18317;DHT22;9284;52.298;21.164;2023-05-10T11:19:14;19.40;78.70
18317;DHT22;9284;52.298;21.164;2023-05-10T11:22:11;19.30;73.50
18317;DHT22;9284;52.298;21.164;2023-05-10T11:24:39;19.50;75.00
18317;DHT22;9284;52.298;21.164;2023-05-10T11:27:11;19.60;80.00
18317;DHT22;9284;52.298;21.164;2023-05-10T11:29:51;19.40;73.30
18317;DHT22;9284;52.298;21.164;2023-05-10T11:32:38;19.40;69.20
18317;DHT22;9284;52.298;21.164;2023-05-10T11:35:18;18.80;69.60
18317;DHT22;9284;52.298;21.164;2023-05-10T11:37:48;18.80;68.00
18317;DHT22;9284;52.298;21.164;2023-05-10T11:40:16;18.60;67.90
18317;DHT22;9284;52.298;21.164;2023-05-10T11:42:49;18.40;67.40
18317;DHT22;9284;52.298;21.164;2023-05-10T11:45:17;18.30;90.10
18317;DHT22;9284;52.298;21.164;2023-05-10T11:47:50;18.50;69.60
18317;DHT22;9284;52.298;21.164;2023-05-10T11:50:27;18.60;70.10
18317;DHT22;9284;52.298;21.164;2023-05-10T11:52:58;18.60;70.80
18317;DHT22;9284;52.298;21.164;2023-05-10T11:55:33;18.60;72.40
18317;DHT22;9284;52.298;21.164;2023-05-10T11:58:05;18.70;75.70
18317;DHT22;9284;52.298;21.164;2023-05-10T12:00:46;18.60;72.20
18317;DHT22;9284;52.298;21.164;2023-05-10T12:03:17;18.30;72.70
18317;DHT22;9284;52.298;21.164;2023-05-10T12:06:02;18.40;74.20
18317;DHT22;9284;52.298;21.164;2023-05-10T12:08:44;18.60;75.00
18317;DHT22;9284;52.298;21.164;2023-05-10T12:11:15;18.20;72.30
18317;DHT22;9284;52.298;21.164;2023-05-10T12:13:46;18.20;70.90
18317;DHT22;9284;52.298;21.164;2023-05-10T12:16:18;18.50;74.10
18317;DHT22;9284;52.298;21.164;2023-05-10T12:18:51;18.60;75.50
18317;DHT22;9284;52.298;21.164;2023-05-10T12:21:26;18.60;75.00
18317;DHT22;9284;52.298;21.164;2023-05-10T12:24:10;18.00;70.70
18317;DHT22;9284;52.298;21.164;2023-05-10T12:26:41;18.30;77.80
18317;DHT22;9284;52.298;21.164;2023-05-10T12:29:30;18.40;70.30
18317;DHT22;9284;52.298;21.164;2023-05-10T12:31:59;18.10;70.40
18317;DHT22;9284;52.298;21.164;2023-05-10T12:34:33;18.30;70.20
18317;DHT22;9284;52.298;21.164;2023-05-10T12:37:09;18.60;76.30
18317;DHT22;9284;52.298;21.164;2023-05-10T12:39:40;18.50;73.40
18317;DHT22;9284;52.298;21.164;2023-05-10T12:42:11;18.40;74.50
18317;DHT22;9284;52.298;21.164;2023-05-10T12:44:41;18.40;70.10
18317;DHT22;9284;52.298;21.164;2023-05-10T12:47:11;18.40;68.60
18317;DHT22;9284;52.298;21.164;2023-05-10T12:49:50;18.30;68.30
18317;DHT22;9284;52.298;21.164;2023-05-10T12:52:28;18.40;70.70
18317;DHT22;9284;52.298;21.164;2023-05-10T12:55:03;18.10;69.40
18317;DHT22;9284;52.298;21.164;2023-05-10T12:57:46;18.20;72.60
18317;DHT22;9284;52.298;21.164;2023-05-10T13:00:24;18.40;68.10
18317;DHT22;9284;52.298;21.164;2023-05-10T13:02:55;18.50;71.80
18317;DHT22;9284;52.298;21.164;2023-05-10T13:05:33;18.60;72.70
18317;DHT22;9284;52.298;21.164;2023-05-10T13:08:12;18.60;77.70
18317;DHT22;9284;52.298;21.164;2023-05-10T13:10:46;18.50;73.70
18317;DHT22;9284;52.298;21.164;2023-05-10T13:13:28;18.40;72.50
18317;DHT22;9284;52.298;21.164;2023-05-10T13:16:08;18.40;75.80
18317;DHT22;9284;52.298;21.164;2023-05-10T13:18:38;18.50;73.40
18317;DHT22;9284;52.298;21.164;2023-05-10T13:21:09;18.40;73.80
18317;DHT22;9284;52.298;21.164;2023-05-10T13:23:39;18.50;75.00
18317;DHT22;9284;52.298;21.164;2023-05-10T13:26:13;18.50;74.30
18317;DHT22;9284;52.298;21.164;2023-05-10T13:28:47;18.50;75.60
18317;DHT22;9284;52.298;21.164;2023-05-10T13:31:17;18.40;72.10
18317;DHT22;9284;52.298;21.164;2023-05-10T13:33:51;18.30;70.20
18317;DHT22;9284;52.298;21.164;2023-05-10T13:36:23;18.10;71.80
18317;DHT22;9284;52.298;21.164;2023-05-10T13:38:57;18.10;68.80
18317;DHT22;9284;52.298;21.164;2023-05-10T13:41:30;18.20;73.70
18317;DHT22;9284;52.298;21.164;2023-05-10T13:44:13;18.40;71.80
18317;DHT22;9284;52.298;21.164;2023-05-10T13:46:52;18.30;67.70
18317;DHT22;9284;52.298;21.164;2023-05-10T13:49:23;18.00;63.40
18317;DHT22;9284;52.298;21.164;2023-05-10T13:51:54;18.00;66.00
18317;DHT22;9284;52.298;21.164;2023-05-10T13:54:29;18.20;64.70
18317;DHT22;9284;52.298;21.164;2023-05-10T13:57:01;18.10;63.60
18317;DHT22;9284;52.298;21.164;2023-05-10T13:59:40;18.10;64.70
18317;DHT22;9284;52.298;21.164;2023-05-10T14:02:09;18.30;63.40
18317;DHT22;9284;52.298;21.164;2023-05-10T14:04:42;18.30;61.80
18317;DHT22;9284;52.298;21.164;2023-05-10T14:07:11;18.10;62.20
18317;DHT22;9284;52.298;21.164;2023-05-10T14:09:44;18.20;65.10
18317;DHT22;9284;52.298;21.164;2023-05-10T14:12:15;18.40;67.60
18317;DHT22;9284;52.298;21.164;2023-05-10T14:14:48;18.10;64.70
18317;DHT22;9284;52.298;21.164;2023-05-10T14:17:26;18.00;64.50
18317;DHT22;9284;52.298;21.164;2023-05-10T14:20:21;18.10;64.70
18317;DHT22;9284;52.298;21.164;2023-05-10T14:22:52;18.00;59.30
18317;DHT22;9284;52.298;21.164;2023-05-10T14:25:27;18.10;60.10
18317;DHT22;9284;52.298;21.164;2023-05-10T14:28:15;18.30;64.90
18317;DHT22;9284;52.298;21.164;2023-05-10T14:31:01;18.30;67.30
18317;DHT22;9284;52.298;21.164;2023-05-10T14:33:32;18.10;59.00
18317;DHT22;9284;52.298;21.164;2023-05-10T14:36:03;18.00;60.60
18317;DHT22;9284;52.298;21.164;2023-05-10T14:38:32;17.90;56.10
18317;DHT22;9284;52.298;21.164;2023-05-10T14:41:12;17.80;55.00
18317;DHT22;9284;52.298;21.164;2023-05-10T14:43:46;17.80;57.00
18317;DHT22;9284;52.298;21.164;2023-05-10T14:46:19;17.80;58.10
18317;DHT22;9284;52.298;21.164;2023-05-10T14:48:51;17.80;53.50
18317;DHT22;9284;52.298;21.164;2023-05-10T14:51:26;17.80;54.60
18317;DHT22;9284;52.298;21.164;2023-05-10T14:53:57;17.80;54.90
18317;DHT22;9284;52.298;21.164;2023-05-10T14:56:29;17.80;56.00
18317;DHT22;9284;52.298;21.164;2023-05-10T14:59:05;17.80;58.00
18317;DHT22;9284;52.298;21.164;2023-05-10T15:01:39;17.80;56.60
18317;DHT22;9284;52.298;21.164;2023-05-10T15:04:17;17.70;54.10
18317;DHT22;9284;52.298;21.164;2023-05-10T15:06:46;17.60;53.80
18317;DHT22;9284;52.298;21.164;2023-05-10T15:09:15;17.70;54.20
18317;DHT22;9284;52.298;21.164;2023-05-10T15:11:48;17.70;57.70
18317;DHT22;9284;52.298;21.164;2023-05-10T15:14:20;17.60;54.90
18317;DHT22;9284;52.298;21.164;2023-05-10T15:16:50;17.50;57.30
18317;DHT22;9284;52.298;21.164;2023-05-10T15:19:22;17.50;57.30
18317;DHT22;9284;52.298;21.164;2023-05-10T15:21:53;17.50;53.20
18317;DHT22;9284;52.298;21.164;2023-05-10T15:24:28;17.40;60.80
18317;DHT22;9284;52.298;21.164;2023-05-10T15:26:59;17.40;57.00
18317;DHT22;9284;52.298;21.164;2023-05-10T15:29:31;17.30;74.10
18317;DHT22;9284;52.298;21.164;2023-05-10T15:32:01;17.30;51.80
18317;DHT22;9284;52.298;21.164;2023-05-10T15:34:31;17.30;57.10
18317;DHT22;9284;52.298;21.164;2023-05-10T15:37:08;17.40;51.40
18317;DHT22;9284;52.298;21.164;2023-05-10T15:39:39;17.30;53.60
18317;DHT22;9284;52.298;21.164;2023-05-10T15:42:09;17.30;52.60
18317;DHT22;9284;52.298;21.164;2023-05-10T15:44:47;17.30;74.00
18317;DHT22;9284;52.298;21.164;2023-05-10T15:47:21;17.20;51.40
18317;DHT22;9284;52.298;21.164;2023-05-10T15:49:50;17.00;52.20
18317;DHT22;9284;52.298;21.164;2023-05-10T15:52:24;17.00;52.00
18317;DHT22;9284;52.298;21.164;2023-05-10T15:54:53;17.10;52.50
18317;DHT22;9284;52.298;21.164;2023-05-10T15:57:29;17.00;51.50
18317;DHT22;9284;52.298;21.164;2023-05-10T15:59:57;17.00;52.10
18317;DHT22;9284;52.298;21.164;2023-05-10T16:02:26;17.00;51.70
18317;DHT22;9284;52.298;21.164;2023-05-10T16:04:58;17.00;52.40
18317;DHT22;9284;52.298;21.164;2023-05-10T16:07:37;16.90;50.90
18317;DHT22;9284;52.298;21.164;2023-05-10T16:10:08;16.90;50.50
18317;DHT22;9284;52.298;21.164;2023-05-10T16:12:39;16.80;54.50
18317;DHT22;9284;52.298;21.164;2023-05-10T16:15:09;16.70;51.60
18317;DHT22;9284;52.298;21.164;2023-05-10T16:17:40;16.80;54.80
18317;DHT22;9284;52.298;21.164;2023-05-10T16:20:09;16.80;52.50
18317;DHT22;9284;52.298;21.164;2023-05-10T16:22:38;16.70;50.30
18317;DHT22;9284;52.298;21.164;2023-05-10T16:25:13;16.60;50.20
18317;DHT22;9284;52.298;21.164;2023-05-10T16:27:52;16.60;48.40
18317;DHT22;9284;52.298;21.164;2023-05-10T16:30:36;16.60;47.30